PRIVATE WETTERSTATION BILLIGHEIM-ALLFELD                       ZURCK
Wetterdaten: Freitag, 06.05.2022
Datum Zeit Temp. A. Temp. A. min Temp. A. max Feuchte A. Luftdruck Regen Wind Richtung Richtung Sonnenschein ET Solar Taupunkt Windchill Windben Empfang
06.05.2022 00:00 10,9 C 10,9 C 11,0 C 90 % 1020,9 hPa 0,0 l/m 0,0 km/h (0 Bft) N 0 0 min 0,000 mm 0 W/m 9,3 C 10,9 C 0,0 km/h (0 Bft) 100 %
06.05.2022 00:10 10,9 C 10,9 C 11,0 C 90 % 1020,9 hPa 0,0 l/m 0,0 km/h (0 Bft) N 0 0 min 0,000 mm 0 W/m 9,3 C 10,9 C 0,0 km/h (0 Bft) 99 %
06.05.2022 00:20 10,9 C 10,9 C 10,9 C 90 % 1020,9 hPa 0,0 l/m 0,0 km/h (0 Bft) N 0 0 min 0,000 mm 0 W/m 9,3 C 10,9 C 0,0 km/h (0 Bft) 100 %
06.05.2022 00:30 10,9 C 10,9 C 10,9 C 90 % 1021,0 hPa 0,0 l/m 0,0 km/h (0 Bft) N 0 0 min 0,000 mm 0 W/m 9,3 C 10,9 C 0,0 km/h (0 Bft) 100 %
06.05.2022 00:40 10,9 C 10,9 C 10,9 C 90 % 1021,0 hPa 0,0 l/m 0,0 km/h (0 Bft) N 0 0 min 0,000 mm 0 W/m 9,3 C 10,9 C 0,0 km/h (0 Bft) 100 %
06.05.2022 00:50 10,9 C 10,9 C 10,9 C 90 % 1020,8 hPa 0,0 l/m 0,0 km/h (0 Bft) N 0 0 min 0,000 mm 0 W/m 9,3 C 10,9 C 0,0 km/h (0 Bft) 98 %
06.05.2022 01:00 10,9 C 10,9 C 10,9 C 90 % 1021,0 hPa 0,0 l/m 0,0 km/h (0 Bft) N 0 0 min 0,000 mm 0 W/m 9,3 C 10,9 C 0,0 km/h (0 Bft) 100 %
06.05.2022 01:10 11,0 C 10,9 C 11,0 C 90 % 1021,0 hPa 0,0 l/m 0,0 km/h (0 Bft) N 0 0 min 0,000 mm 0 W/m 9,4 C 11,0 C 0,0 km/h (0 Bft) 99 %
06.05.2022 01:20 11,1 C 11,0 C 11,1 C 90 % 1021,0 hPa 0,0 l/m 0,0 km/h (0 Bft) N 0 0 min 0,000 mm 0 W/m 9,5 C 11,1 C 0,0 km/h (0 Bft) 100 %
06.05.2022 01:30 11,1 C 11,1 C 11,1 C 90 % 1021,0 hPa 0,0 l/m 0,0 km/h (0 Bft) N 0 0 min 0,000 mm 0 W/m 9,5 C 11,1 C 0,0 km/h (0 Bft) 100 %
06.05.2022 01:40 11,1 C 11,1 C 11,1 C 90 % 1021,0 hPa 0,0 l/m 0,0 km/h (0 Bft) N 0 0 min 0,000 mm 0 W/m 9,5 C 11,1 C 0,0 km/h (0 Bft) 100 %
06.05.2022 01:50 11,1 C 11,1 C 11,1 C 89 % 1021,1 hPa 0,0 l/m 0,0 km/h (0 Bft) N-NW 337 0 min 0,000 mm 0 W/m 9,4 C 11,1 C 4,8 km/h (1 Bft) 100 %
06.05.2022 02:00 11,1 C 11,1 C 11,1 C 89 % 1021,0 hPa 0,0 l/m 0,0 km/h (0 Bft) N 0 0 min 0,000 mm 0 W/m 9,4 C 11,1 C 0,0 km/h (0 Bft) 100 %
06.05.2022 02:10 11,1 C 11,1 C 11,1 C 88 % 1021,0 hPa 0,0 l/m 0,0 km/h (0 Bft) N 0 0 min 0,000 mm 0 W/m 9,2 C 11,1 C 0,0 km/h (0 Bft) 100 %
06.05.2022 02:20 11,0 C 11,0 C 11,1 C 88 % 1021,1 hPa 0,0 l/m 0,0 km/h (0 Bft) N 0 0 min 0,000 mm 0 W/m 9,1 C 11,0 C 0,0 km/h (0 Bft) 100 %
06.05.2022 02:30 10,9 C 10,9 C 11,0 C 88 % 1021,0 hPa 0,0 l/m 0,0 km/h (0 Bft) N 0 0 min 0,000 mm 0 W/m 9,0 C 10,9 C 0,0 km/h (0 Bft) 100 %
06.05.2022 02:40 10,9 C 10,9 C 10,9 C 88 % 1021,0 hPa 0,0 l/m 0,0 km/h (0 Bft) N 0 0 min 0,000 mm 0 W/m 9,0 C 10,9 C 0,0 km/h (0 Bft) 100 %
06.05.2022 02:50 10,8 C 10,8 C 10,9 C 88 % 1020,9 hPa 0,0 l/m 0,0 km/h (0 Bft) N 0 0 min 0,000 mm 0 W/m 8,9 C 10,8 C 0,0 km/h (0 Bft) 100 %
06.05.2022 03:00 10,8 C 10,8 C 10,8 C 87 % 1020,9 hPa 0,0 l/m 0,0 km/h (0 Bft) N 0 0 min 0,000 mm 0 W/m 8,7 C 10,8 C 0,0 km/h (0 Bft) 100 %
06.05.2022 03:10 10,7 C 10,7 C 10,8 C 87 % 1021,0 hPa 0,0 l/m 0,0 km/h (0 Bft) N 0 0 min 0,000 mm 0 W/m 8,6 C 10,7 C 0,0 km/h (0 Bft) 100 %
06.05.2022 03:20 10,7 C 10,7 C 10,7 C 87 % 1021,0 hPa 0,0 l/m 0,0 km/h (0 Bft) N 0 0 min 0,000 mm 0 W/m 8,6 C 10,7 C 0,0 km/h (0 Bft) 100 %
06.05.2022 03:30 10,6 C 10,6 C 10,7 C 87 % 1021,1 hPa 0,0 l/m 0,0 km/h (0 Bft) N 0 0 min 0,000 mm 0 W/m 8,5 C 10,6 C 0,0 km/h (0 Bft) 100 %
06.05.2022 03:40 10,6 C 10,6 C 10,6 C 87 % 1021,1 hPa 0,0 l/m 0,0 km/h (0 Bft) N 0 0 min 0,000 mm 0 W/m 8,5 C 10,6 C 0,0 km/h (0 Bft) 100 %
06.05.2022 03:50 10,5 C 10,5 C 10,6 C 87 % 1021,1 hPa 0,0 l/m 0,0 km/h (0 Bft) N 0 0 min 0,000 mm 0 W/m 8,4 C 10,5 C 0,0 km/h (0 Bft) 100 %
06.05.2022 04:00 10,3 C 10,3 C 10,4 C 87 % 1021,1 hPa 0,0 l/m 0,0 km/h (0 Bft) N 0 0 min 0,000 mm 0 W/m 8,2 C 10,3 C 0,0 km/h (0 Bft) 100 %
06.05.2022 04:10 10,3 C 10,2 C 10,3 C 88 % 1021,1 hPa 0,0 l/m 0,0 km/h (0 Bft) N-NW 337 0 min 0,000 mm 0 W/m 8,4 C 10,3 C 3,2 km/h (1 Bft) 100 %
06.05.2022 04:20 10,2 C 10,1 C 10,3 C 88 % 1021,1 hPa 0,0 l/m 0,0 km/h (0 Bft) N 0 0 min 0,000 mm 0 W/m 8,3 C 10,2 C 0,0 km/h (0 Bft) 100 %
06.05.2022 04:30 10,1 C 10,1 C 10,1 C 88 % 1021,2 hPa 0,0 l/m 0,0 km/h (0 Bft) N 0 0 min 0,000 mm 0 W/m 8,2 C 10,1 C 0,0 km/h (0 Bft) 100 %
06.05.2022 04:40 10,0 C 10,0 C 10,1 C 89 % 1021,2 hPa 0,0 l/m 0,0 km/h (0 Bft) N 0 0 min 0,000 mm 0 W/m 8,3 C 10,0 C 0,0 km/h (0 Bft) 99 %
06.05.2022 04:50 9,9 C 9,9 C 10,0 C 89 % 1021,3 hPa 0,0 l/m 0,0 km/h (0 Bft) N 0 0 min 0,000 mm 0 W/m 8,2 C 9,9 C 0,0 km/h (0 Bft) 100 %
06.05.2022 05:00 9,9 C 9,8 C 9,9 C 89 % 1021,1 hPa 0,0 l/m 0,0 km/h (0 Bft) N 0 0 min 0,000 mm 0 W/m 8,2 C 9,9 C 0,0 km/h (0 Bft) 100 %
06.05.2022 05:10 9,7 C 9,7 C 9,9 C 89 % 1021,2 hPa 0,0 l/m 0,0 km/h (0 Bft) N 0 0 min 0,000 mm 0 W/m 8,0 C 9,7 C 0,0 km/h (0 Bft) 90 %
06.05.2022 05:20 9,6 C 9,6 C 9,8 C 89 % 1021,2 hPa 0,0 l/m 0,0 km/h (0 Bft) N 0 0 min 0,000 mm 0 W/m 7,9 C 9,6 C 0,0 km/h (0 Bft) 100 %
06.05.2022 05:30 9,5 C 9,5 C 9,6 C 89 % 1021,3 hPa 0,0 l/m 0,0 km/h (0 Bft) N 0 0 min 0,000 mm 0 W/m 7,8 C 9,5 C 0,0 km/h (0 Bft) 100 %
06.05.2022 05:40 9,3 C 9,3 C 9,5 C 90 % 1021,3 hPa 0,0 l/m 0,0 km/h (0 Bft) N-NW 337 0 min 0,000 mm 0 W/m 7,7 C 9,3 C 1,6 km/h (1 Bft) 100 %
06.05.2022 05:50 9,2 C 9,2 C 9,3 C 90 % 1021,3 hPa 0,0 l/m 0,0 km/h (0 Bft) N 0 0 min 0,000 mm 0 W/m 7,6 C 9,2 C 0,0 km/h (0 Bft) 100 %
06.05.2022 06:00 9,1 C 9,1 C 9,2 C 90 % 1021,3 hPa 0,0 l/m 0,0 km/h (0 Bft) N 0 0 min 0,000 mm 0 W/m 7,5 C 9,1 C 0,0 km/h (0 Bft) 100 %
06.05.2022 06:10 8,9 C 8,9 C 9,1 C 90 % 1021,4 hPa 0,0 l/m 0,0 km/h (0 Bft) N 0 0 min 0,000 mm 7 W/m 7,4 C 8,9 C 0,0 km/h (0 Bft) 100 %
06.05.2022 06:20 8,9 C 8,9 C 8,9 C 90 % 1021,4 hPa 0,0 l/m 0,0 km/h (0 Bft) N 0 0 min 0,000 mm 12 W/m 7,4 C 8,9 C 0,0 km/h (0 Bft) 100 %
06.05.2022 06:30 8,9 C 8,9 C 8,9 C 90 % 1021,5 hPa 0,0 l/m 0,0 km/h (0 Bft) N 0 0 min 0,000 mm 19 W/m 7,4 C 8,9 C 0,0 km/h (0 Bft) 100 %
06.05.2022 06:40 9,0 C 8,9 C 9,0 C 90 % 1021,6 hPa 0,0 l/m 0,0 km/h (0 Bft) N 0 0 min 0,000 mm 28 W/m 7,4 C 9,0 C 0,0 km/h (0 Bft) 100 %
06.05.2022 06:50 9,1 C 9,0 C 9,1 C 89 % 1021,6 hPa 0,0 l/m 0,0 km/h (0 Bft) N 0 0 min 0,000 mm 39 W/m 7,4 C 9,1 C 0,0 km/h (0 Bft) 100 %
06.05.2022 07:00 9,2 C 9,1 C 9,2 C 88 % 1021,7 hPa 0,0 l/m 0,0 km/h (0 Bft) N 0 0 min 0,000 mm 49 W/m 7,3 C 9,2 C 0,0 km/h (0 Bft) 100 %
06.05.2022 07:10 9,3 C 9,2 C 9,3 C 88 % 1021,8 hPa 0,0 l/m 0,0 km/h (0 Bft) N 0 0 min 0,000 mm 60 W/m 7,4 C 9,3 C 0,0 km/h (0 Bft) 100 %
06.05.2022 07:20 9,5 C 9,3 C 9,5 C 88 % 1021,9 hPa 0,0 l/m 0,0 km/h (0 Bft) N 0 0 min 0,000 mm 74 W/m 7,6 C 9,5 C 0,0 km/h (0 Bft) 100 %
06.05.2022 07:30 9,7 C 9,6 C 9,7 C 87 % 1022,0 hPa 0,0 l/m 0,0 km/h (0 Bft) N 0 0 min 0,000 mm 88 W/m 7,6 C 9,7 C 0,0 km/h (0 Bft) 100 %
06.05.2022 07:40 9,9 C 9,7 C 9,9 C 87 % 1022,0 hPa 0,0 l/m 0,0 km/h (0 Bft) N-NW 337 0 min 0,000 mm 104 W/m 7,8 C 9,9 C 1,6 km/h (1 Bft) 100 %
06.05.2022 07:50 10,1 C 9,9 C 10,1 C 86 % 1022,0 hPa 0,0 l/m 0,0 km/h (0 Bft) N-NW 337 0 min 0,000 mm 125 W/m 7,9 C 10,1 C 3,2 km/h (1 Bft) 100 %
06.05.2022 08:00 10,3 C 10,1 C 10,3 C 85 % 1022,1 hPa 0,0 l/m 0,0 km/h (0 Bft) N-NW 337 0 min 0,051 mm 151 W/m 7,9 C 10,3 C 1,6 km/h (1 Bft) 100 %
06.05.2022 08:10 10,7 C 10,3 C 10,7 C 86 % 1022,2 hPa 0,0 l/m 0,0 km/h (0 Bft) N-NW 337 10 min 0,000 mm 181 W/m 8,5 C 10,7 C 4,8 km/h (1 Bft) 100 %
06.05.2022 08:20 10,9 C 10,7 C 10,9 C 84 % 1022,1 hPa 0,0 l/m 0,0 km/h (0 Bft) N-NW 337 10 min 0,000 mm 202 W/m 8,3 C 10,9 C 3,2 km/h (1 Bft) 100 %
06.05.2022 08:30 11,3 C 10,9 C 11,3 C 82 % 1022,1 hPa 0,0 l/m 0,0 km/h (0 Bft) N-NW 337 10 min 0,000 mm 243 W/m 8,3 C 11,3 C 3,2 km/h (1 Bft) 100 %
06.05.2022 08:40 11,7 C 11,3 C 11,7 C 81 % 1022,0 hPa 0,0 l/m 0,0 km/h (0 Bft) N-NW 337 10 min 0,000 mm 278 W/m 8,5 C 11,7 C 1,6 km/h (1 Bft) 99 %
06.05.2022 08:50 12,1 C 11,7 C 12,1 C 81 % 1022,0 hPa 0,0 l/m 0,0 km/h (0 Bft) N-NW 337 10 min 0,000 mm 288 W/m 8,9 C 12,1 C 4,8 km/h (1 Bft) 100 %
06.05.2022 09:00 12,5 C 12,1 C 12,5 C 79 % 1022,1 hPa 0,0 l/m 1,6 km/h (1 Bft) N-NW 337 10 min 0,102 mm 302 W/m 9,0 C 12,5 C 6,4 km/h (2 Bft) 100 %
06.05.2022 09:10 12,9 C 12,5 C 12,9 C 78 % 1022,2 hPa 0,0 l/m 1,6 km/h (1 Bft) N-NW 337 10 min 0,000 mm 313 W/m 9,2 C 12,9 C 8,0 km/h (2 Bft) 100 %
06.05.2022 09:20 13,3 C 12,9 C 13,3 C 74 % 1022,2 hPa 0,0 l/m 1,6 km/h (1 Bft) N 360 10 min 0,000 mm 309 W/m 8,8 C 13,3 C 6,4 km/h (2 Bft) 100 %
06.05.2022 09:30 13,4 C 13,2 C 13,4 C 72 % 1022,2 hPa 0,0 l/m 1,6 km/h (1 Bft) N-NW 337 10 min 0,000 mm 343 W/m 8,5 C 13,4 C 6,4 km/h (2 Bft) 100 %
06.05.2022 09:40 13,7 C 13,4 C 13,7 C 71 % 1022,2 hPa 0,0 l/m 1,6 km/h (1 Bft) N-NW 337 10 min 0,000 mm 357 W/m 8,5 C 13,7 C 8,0 km/h (2 Bft) 100 %
06.05.2022 09:50 13,8 C 13,7 C 13,8 C 69 % 1022,2 hPa 0,0 l/m 0,0 km/h (0 Bft) N-NW 337 10 min 0,000 mm 387 W/m 8,2 C 13,8 C 6,4 km/h (2 Bft) 100 %
06.05.2022 10:00 13,9 C 13,8 C 13,9 C 68 % 1022,3 hPa 0,0 l/m 1,6 km/h (1 Bft) N-NW 337 10 min 0,152 mm 359 W/m 8,1 C 13,9 C 6,4 km/h (2 Bft) 100 %
06.05.2022 10:10 14,1 C 13,9 C 14,1 C 69 % 1022,4 hPa 0,0 l/m 0,0 km/h (0 Bft) N-NW 337 10 min 0,000 mm 438 W/m 8,5 C 14,1 C 9,7 km/h (2 Bft) 100 %
06.05.2022 10:20 14,4 C 14,1 C 14,4 C 67 % 1022,5 hPa 0,0 l/m 0,0 km/h (0 Bft) N-NW 337 10 min 0,000 mm 462 W/m 8,4 C 14,4 C 4,8 km/h (1 Bft) 100 %
06.05.2022 10:30 14,6 C 14,4 C 14,6 C 64 % 1022,5 hPa 0,0 l/m 1,6 km/h (1 Bft) N-NW 337 10 min 0,000 mm 459 W/m 7,9 C 14,6 C 9,7 km/h (2 Bft) 100 %
06.05.2022 10:40 14,9 C 14,6 C 14,9 C 64 % 1022,5 hPa 0,0 l/m 0,0 km/h (0 Bft) N-NW 337 10 min 0,000 mm 517 W/m 8,2 C 14,9 C 6,4 km/h (2 Bft) 100 %
06.05.2022 10:50 15,2 C 15,0 C 15,2 C 62 % 1022,5 hPa 0,0 l/m 1,6 km/h (1 Bft) N-NW 337 10 min 0,000 mm 534 W/m 8,0 C 15,2 C 9,7 km/h (2 Bft) 99 %
06.05.2022 11:00 15,4 C 15,2 C 15,4 C 59 % 1022,6 hPa 0,0 l/m 1,6 km/h (1 Bft) N-NW 337 10 min 0,229 mm 633 W/m 7,4 C 15,4 C 4,8 km/h (1 Bft) 100 %
06.05.2022 11:10 15,6 C 15,4 C 15,6 C 61 % 1022,7 hPa 0,0 l/m 1,6 km/h (1 Bft) N-NW 337 10 min 0,000 mm 585 W/m 8,1 C 15,6 C 4,8 km/h (1 Bft) 100 %
06.05.2022 11:20 15,7 C 15,6 C 15,7 C 59 % 1022,7 hPa 0,0 l/m 1,6 km/h (1 Bft) N-NW 337 10 min 0,000 mm 591 W/m 7,7 C 15,7 C 6,4 km/h (2 Bft) 100 %
06.05.2022 11:30 15,9 C 15,7 C 15,9 C 59 % 1022,6 hPa 0,0 l/m 0,0 km/h (0 Bft) N-NW 337 10 min 0,000 mm 642 W/m 7,9 C 15,9 C 4,8 km/h (1 Bft) 100 %
06.05.2022 11:40 16,2 C 15,9 C 16,2 C 59 % 1022,7 hPa 0,0 l/m 1,6 km/h (1 Bft) N-NW 337 10 min 0,000 mm 777 W/m 8,2 C 16,2 C 11,3 km/h (2 Bft) 100 %
06.05.2022 11:50 16,5 C 16,2 C 16,5 C 58 % 1022,6 hPa 0,0 l/m 1,6 km/h (1 Bft) N 360 10 min 0,000 mm 773 W/m 8,2 C 16,5 C 11,3 km/h (2 Bft) 100 %
06.05.2022 12:00 16,7 C 16,5 C 16,7 C 56 % 1022,5 hPa 0,0 l/m 1,6 km/h (1 Bft) NW 315 10 min 0,305 mm 684 W/m 7,9 C 16,7 C 8,0 km/h (2 Bft) 99 %
06.05.2022 12:10 16,8 C 16,7 C 16,8 C 58 % 1022,6 hPa 0,0 l/m 3,2 km/h (1 Bft) N 360 10 min 0,000 mm 649 W/m 8,5 C 16,8 C 9,7 km/h (2 Bft) 100 %
06.05.2022 12:20 16,9 C 16,8 C 16,9 C 59 % 1022,6 hPa 0,0 l/m 0,0 km/h (0 Bft) W-NW 292 10 min 0,000 mm 708 W/m 8,8 C 16,9 C 11,3 km/h (2 Bft) 100 %
06.05.2022 12:30 17,0 C 16,9 C 17,0 C 53 % 1022,6 hPa 0,0 l/m 0,0 km/h (0 Bft) N-NO 22 10 min 0,000 mm 710 W/m 7,4 C 17,0 C 14,5 km/h (3 Bft) 99 %
06.05.2022 12:40 17,1 C 17,0 C 17,1 C 52 % 1022,5 hPa 0,0 l/m 0,0 km/h (0 Bft) NO 45 10 min 0,000 mm 619 W/m 7,2 C 17,1 C 12,9 km/h (3 Bft) 100 %
06.05.2022 12:50 17,2 C 17,1 C 17,2 C 54 % 1022,5 hPa 0,0 l/m 0,0 km/h (0 Bft) S-SW 202 10 min 0,000 mm 712 W/m 7,8 C 17,2 C 6,4 km/h (2 Bft) 100 %
06.05.2022 13:00 17,3 C 17,2 C 17,3 C 53 % 1022,4 hPa 0,0 l/m 0,0 km/h (0 Bft) N-NW 337 10 min 0,330 mm 582 W/m 7,6 C 17,3 C 4,8 km/h (1 Bft) 100 %
06.05.2022 13:10 17,3 C 17,3 C 17,4 C 52 % 1022,3 hPa 0,0 l/m 0,0 km/h (0 Bft) N 360 10 min 0,000 mm 601 W/m 7,3 C 17,3 C 6,4 km/h (2 Bft) 100 %
06.05.2022 13:20 17,6 C 17,3 C 17,6 C 54 % 1022,2 hPa 0,0 l/m 0,0 km/h (0 Bft) N 360 10 min 0,000 mm 777 W/m 8,2 C 17,6 C 8,0 km/h (2 Bft) 100 %
06.05.2022 13:30 17,8 C 17,6 C 17,8 C 54 % 1022,2 hPa 0,0 l/m 0,0 km/h (0 Bft) N-NW 337 10 min 0,000 mm 650 W/m 8,4 C 17,8 C 11,3 km/h (2 Bft) 100 %
06.05.2022 13:40 17,8 C 17,8 C 17,9 C 53 % 1022,2 hPa 0,0 l/m 0,0 km/h (0 Bft) NO 45 10 min 0,000 mm 775 W/m 8,1 C 17,8 C 4,8 km/h (1 Bft) 100 %
06.05.2022 13:50 17,9 C 17,8 C 17,9 C 55 % 1022,1 hPa 0,0 l/m 0,0 km/h (0 Bft) NW 315 10 min 0,000 mm 751 W/m 8,7 C 17,9 C 6,4 km/h (2 Bft) 100 %
06.05.2022 14:00 18,2 C 17,9 C 18,2 C 58 % 1022,1 hPa 0,0 l/m 3,2 km/h (1 Bft) N-NW 337 10 min 0,330 mm 759 W/m 9,8 C 18,2 C 11,3 km/h (2 Bft) 100 %
06.05.2022 14:10 18,4 C 18,2 C 18,4 C 55 % 1022,2 hPa 0,0 l/m 1,6 km/h (1 Bft) N-NW 337 10 min 0,000 mm 983 W/m 9,2 C 18,4 C 11,3 km/h (2 Bft) 100 %
06.05.2022 14:20 18,8 C 18,4 C 18,9 C 54 % 1022,1 hPa 0,0 l/m 4,8 km/h (1 Bft) N-NW 337 10 min 0,000 mm 944 W/m 9,3 C 18,8 C 24,1 km/h (4 Bft) 99 %
06.05.2022 14:30 18,9 C 18,8 C 18,9 C 52 % 1022,1 hPa 0,0 l/m 1,6 km/h (1 Bft) N-NW 337 10 min 0,000 mm 951 W/m 8,8 C 18,9 C 11,3 km/h (2 Bft) 100 %
06.05.2022 14:40 18,4 C 18,4 C 18,9 C 55 % 1022,0 hPa 0,0 l/m 1,6 km/h (1 Bft) N-NW 337 10 min 0,000 mm 717 W/m 9,2 C 18,4 C 17,7 km/h (3 Bft) 100 %
06.05.2022 14:50 18,4 C 18,4 C 18,4 C 60 % 1021,9 hPa 0,0 l/m 1,6 km/h (1 Bft) N-NW 337 10 min 0,000 mm 749 W/m 10,5 C 18,4 C 11,3 km/h (2 Bft) 100 %
06.05.2022 15:00 18,7 C 18,4 C 18,7 C 55 % 1021,9 hPa 0,0 l/m 0,0 km/h (0 Bft) N 360 10 min 0,381 mm 868 W/m 9,5 C 18,7 C 4,8 km/h (1 Bft) 100 %
06.05.2022 15:10 18,8 C 18,7 C 18,9 C 54 % 1021,9 hPa 0,0 l/m 1,6 km/h (1 Bft) NW 315 10 min 0,000 mm 673 W/m 9,3 C 18,8 C 12,9 km/h (3 Bft) 100 %
06.05.2022 15:30 18,8 C 18,7 C 18,9 C 52 % 1021,8 hPa 0,0 l/m 2,1 km/h (1 Bft) N-NW 329 20 min 0,000 mm 628 W/m 8,7 C 18,8 C 16,1 km/h (3 Bft) 100 %
06.05.2022 15:40 18,9 C 18,8 C 18,9 C 55 % 1021,7 hPa 0,0 l/m 0,0 km/h (0 Bft) NW 322 10 min 0,000 mm 480 W/m 9,7 C 18,9 C 3,2 km/h (1 Bft) 99 %
06.05.2022 15:50 19,0 C 18,9 C 19,1 C 51 % 1021,8 hPa 0,0 l/m 1,7 km/h (1 Bft) N-NW 340 10 min 0,000 mm 434 W/m 8,6 C 19,0 C 9,7 km/h (2 Bft) 99 %
06.05.2022 16:00 19,1 C 18,9 C 19,2 C 51 % 1021,8 hPa 0,0 l/m 0,6 km/h (0 Bft) O-SO 118 10 min 0,000 mm 624 W/m 8,7 C 19,1 C 9,7 km/h (2 Bft) 99 %
06.05.2022 16:10 19,0 C 19,0 C 19,2 C 52 % 1021,8 hPa 0,0 l/m 0,3 km/h (0 Bft) O-NO 68 10 min 0,330 mm 513 W/m 8,9 C 19,0 C 8,0 km/h (2 Bft) 99 %
06.05.2022 16:20 19,4 C 18,9 C 19,4 C 56 % 1021,7 hPa 0,0 l/m 0,0 km/h (0 Bft) O-NO 60 10 min 0,000 mm 598 W/m 10,4 C 19,4 C 1,6 km/h (1 Bft) 100 %
06.05.2022 16:30 19,7 C 19,4 C 19,7 C 52 % 1021,6 hPa 0,0 l/m 0,4 km/h (0 Bft) O 85 10 min 0,000 mm 431 W/m 9,6 C 19,7 C 6,4 km/h (2 Bft) 100 %
06.05.2022 16:40 19,3 C 19,3 C 19,7 C 52 % 1021,5 hPa 0,0 l/m 0,1 km/h (0 Bft) O 94 10 min 0,000 mm 471 W/m 9,2 C 19,3 C 4,8 km/h (1 Bft) 100 %
06.05.2022 16:50 19,1 C 19,1 C 19,3 C 53 % 1021,4 hPa 0,0 l/m 0,1 km/h (0 Bft) O 81 10 min 0,000 mm 323 W/m 9,3 C 19,1 C 3,2 km/h (1 Bft) 100 %
06.05.2022 17:00 19,1 C 19,1 C 19,1 C 54 % 1021,4 hPa 0,0 l/m 0,1 km/h (0 Bft) O 100 10 min 0,279 mm 330 W/m 9,6 C 19,1 C 4,8 km/h (1 Bft) 100 %
06.05.2022 17:10 19,2 C 19,1 C 19,2 C 52 % 1021,4 hPa 0,0 l/m 0,1 km/h (0 Bft) SO 125 10 min 0,000 mm 496 W/m 9,1 C 19,2 C 6,4 km/h (2 Bft) 100 %
06.05.2022 17:20 19,3 C 19,2 C 19,3 C 50 % 1021,4 hPa 0,0 l/m 0,0 km/h (0 Bft) O-SO 118 10 min 0,000 mm 378 W/m 8,6 C 19,3 C 1,6 km/h (1 Bft) 100 %
06.05.2022 17:30 19,4 C 19,3 C 19,4 C 53 % 1021,3 hPa 0,0 l/m 0,2 km/h (0 Bft) O-SO 121 10 min 0,000 mm 508 W/m 9,6 C 19,4 C 6,4 km/h (2 Bft) 100 %
06.05.2022 17:40 19,6 C 19,4 C 19,6 C 51 % 1021,3 hPa 0,0 l/m 0,0 km/h (0 Bft) O-NO 72 10 min 0,000 mm 302 W/m 9,2 C 19,6 C 1,6 km/h (1 Bft) 100 %
06.05.2022 17:50 19,2 C 19,2 C 19,6 C 50 % 1021,2 hPa 0,0 l/m 0,0 km/h (0 Bft) O 94 10 min 0,000 mm 221 W/m 8,5 C 19,2 C 1,6 km/h (1 Bft) 100 %
06.05.2022 18:00 18,8 C 18,8 C 19,2 C 50 % 1021,3 hPa 0,0 l/m 0,4 km/h (0 Bft) O-SO 111 10 min 0,203 mm 223 W/m 8,2 C 18,8 C 8,0 km/h (2 Bft) 100 %
06.05.2022 18:10 18,5 C 18,5 C 18,8 C 52 % 1021,2 hPa 0,0 l/m 0,2 km/h (0 Bft) O-SO 109 10 min 0,000 mm 195 W/m 8,5 C 18,5 C 4,8 km/h (1 Bft) 99 %
06.05.2022 18:20 18,2 C 18,2 C 18,5 C 52 % 1021,1 hPa 0,0 l/m 0,7 km/h (0 Bft) SO 124 10 min 0,000 mm 213 W/m 8,2 C 18,2 C 9,7 km/h (2 Bft) 100 %
06.05.2022 18:30 18,1 C 18,1 C 18,2 C 54 % 1021,2 hPa 0,0 l/m 0,2 km/h (0 Bft) SO 125 10 min 0,000 mm 325 W/m 8,6 C 18,1 C 6,4 km/h (2 Bft) 99 %
06.05.2022 18:40 18,3 C 18,1 C 18,3 C 53 % 1021,2 hPa 0,0 l/m 0,6 km/h (0 Bft) O-SO 119 10 min 0,000 mm 301 W/m 8,6 C 18,3 C 8,0 km/h (2 Bft) 99 %
06.05.2022 18:50 18,5 C 18,3 C 18,5 C 52 % 1021,1 hPa 0,0 l/m 0,2 km/h (0 Bft) O-SO 117 10 min 0,000 mm 202 W/m 8,5 C 18,5 C 6,4 km/h (2 Bft) 98 %
06.05.2022 19:00 18,4 C 18,4 C 18,5 C 51 % 1021,1 hPa 0,0 l/m 0,3 km/h (0 Bft) O-SO 104 10 min 0,153 mm 287 W/m 8,1 C 18,4 C 6,4 km/h (2 Bft) 98 %
06.05.2022 19:10 18,3 C 18,3 C 18,4 C 53 % 1021,0 hPa 0,0 l/m 0,1 km/h (0 Bft) O 100 0 min 0,000 mm 116 W/m 8,6 C 18,3 C 4,8 km/h (1 Bft) 97 %
06.05.2022 19:20 18,2 C 18,2 C 18,3 C 53 % 1021,1 hPa 0,0 l/m 0,4 km/h (0 Bft) O-SO 108 0 min 0,000 mm 100 W/m 8,5 C 18,2 C 8,0 km/h (2 Bft) 97 %
06.05.2022 19:30 18,0 C 18,0 C 18,2 C 53 % 1021,1 hPa 0,0 l/m 0,1 km/h (0 Bft) O-SO 120 0 min 0,000 mm 90 W/m 8,3 C 18,0 C 8,0 km/h (2 Bft) 98 %
06.05.2022 19:40 17,9 C 17,9 C 18,0 C 53 % 1021,1 hPa 0,0 l/m 0,1 km/h (0 Bft) O-SO 104 0 min 0,000 mm 83 W/m 8,2 C 17,9 C 4,8 km/h (1 Bft) 97 %
06.05.2022 19:50 17,8 C 17,8 C 17,9 C 54 % 1021,2 hPa 0,0 l/m 0,0 km/h (0 Bft) O 90 0 min 0,000 mm 72 W/m 8,4 C 17,8 C 1,6 km/h (1 Bft) 98 %
06.05.2022 20:00 17,5 C 17,5 C 17,8 C 53 % 1021,2 hPa 0,0 l/m 0,2 km/h (0 Bft) O-SO 102 0 min 0,076 mm 56 W/m 7,8 C 17,5 C 4,8 km/h (1 Bft) 97 %
06.05.2022 20:10 17,3 C 17,3 C 17,5 C 54 % 1021,3 hPa 0,0 l/m 0,0 km/h (0 Bft) O-SO 104 0 min 0,000 mm 40 W/m 7,9 C 17,3 C 0,0 km/h (0 Bft) 98 %
06.05.2022 20:20 17,1 C 17,1 C 17,3 C 58 % 1021,3 hPa 0,0 l/m 0,0 km/h (0 Bft) O-SO 104 0 min 0,000 mm 30 W/m 8,8 C 17,1 C 0,0 km/h (0 Bft) 97 %
06.05.2022 20:30 16,6 C 16,6 C 17,1 C 59 % 1021,4 hPa 0,0 l/m 0,0 km/h (0 Bft) O-SO 104 0 min 0,000 mm 21 W/m 8,6 C 16,6 C 0,0 km/h (0 Bft) 97 %
06.05.2022 20:40 16,1 C 16,1 C 16,6 C 60 % 1021,4 hPa 0,0 l/m 0,0 km/h (0 Bft) O-SO 104 0 min 0,000 mm 12 W/m 8,3 C 16,1 C 0,0 km/h (0 Bft) 98 %
06.05.2022 20:50 15,7 C 15,7 C 16,1 C 62 % 1021,6 hPa 0,0 l/m 0,0 km/h (0 Bft) O-SO 104 0 min 0,000 mm 5 W/m 8,4 C 15,7 C 0,0 km/h (0 Bft) 97 %
06.05.2022 21:00 15,3 C 15,3 C 15,7 C 63 % 1021,7 hPa 0,0 l/m 0,0 km/h (0 Bft) O-SO 104 0 min 0,025 mm 0 W/m 8,3 C 15,3 C 0,0 km/h (0 Bft) 98 %
06.05.2022 21:10 15,0 C 15,0 C 15,3 C 64 % 1021,7 hPa 0,0 l/m 0,0 km/h (0 Bft) N 0 0 min 0,000 mm 0 W/m 8,2 C 15,0 C 0,0 km/h (0 Bft) 100 %
06.05.2022 21:20 14,5 C 14,5 C 14,9 C 64 % 1021,9 hPa 0,0 l/m 0,0 km/h (0 Bft) N 0 0 min 0,000 mm 0 W/m 7,8 C 14,5 C 0,0 km/h (0 Bft) 99 %
06.05.2022 21:30 14,1 C 14,1 C 14,5 C 66 % 1021,7 hPa 0,0 l/m 0,0 km/h (0 Bft) N 0 0 min 0,000 mm 0 W/m 7,8 C 14,1 C 0,0 km/h (0 Bft) 100 %
06.05.2022 21:40 13,7 C 13,7 C 14,1 C 67 % 1021,8 hPa 0,0 l/m 0,0 km/h (0 Bft) O 90 0 min 0,000 mm 0 W/m 7,7 C 13,7 C 1,6 km/h (1 Bft) 100 %
06.05.2022 21:50 13,3 C 13,3 C 13,7 C 67 % 1021,9 hPa 0,0 l/m 0,0 km/h (0 Bft) N 0 0 min 0,000 mm 0 W/m 7,3 C 13,3 C 0,0 km/h (0 Bft) 100 %
06.05.2022 22:00 12,9 C 12,9 C 13,3 C 70 % 1021,8 hPa 0,0 l/m 0,0 km/h (0 Bft) N 0 0 min 0,025 mm 0 W/m 7,6 C 12,9 C 0,0 km/h (0 Bft) 100 %
06.05.2022 22:10 12,6 C 12,6 C 12,9 C 71 % 1022,0 hPa 0,0 l/m 0,0 km/h (0 Bft) N 0 0 min 0,000 mm 0 W/m 7,5 C 12,6 C 0,0 km/h (0 Bft) 99 %
06.05.2022 22:20 12,3 C 12,3 C 12,6 C 72 % 1022,0 hPa 0,0 l/m 0,0 km/h (0 Bft) N 0 0 min 0,000 mm 0 W/m 7,4 C 12,3 C 0,0 km/h (0 Bft) 100 %
06.05.2022 22:30 12,0 C 12,0 C 12,3 C 73 % 1021,9 hPa 0,0 l/m 0,0 km/h (0 Bft) N 0 0 min 0,000 mm 0 W/m 7,3 C 12,0 C 0,0 km/h (0 Bft) 100 %
06.05.2022 22:40 11,8 C 11,8 C 12,0 C 74 % 1021,9 hPa 0,0 l/m 0,0 km/h (0 Bft) N 0 0 min 0,000 mm 0 W/m 7,3 C 11,8 C 0,0 km/h (0 Bft) 100 %
06.05.2022 22:50 11,6 C 11,6 C 11,8 C 76 % 1021,8 hPa 0,0 l/m 0,0 km/h (0 Bft) N 0 0 min 0,000 mm 0 W/m 7,5 C 11,6 C 0,0 km/h (0 Bft) 100 %
06.05.2022 23:00 11,6 C 11,6 C 11,6 C 77 % 1021,8 hPa 0,0 l/m 0,0 km/h (0 Bft) N 0 0 min 0,025 mm 0 W/m 7,7 C 11,6 C 0,0 km/h (0 Bft) 100 %
06.05.2022 23:10 11,4 C 11,4 C 11,6 C 78 % 1021,8 hPa 0,0 l/m 0,0 km/h (0 Bft) N 0 0 min 0,000 mm 0 W/m 7,7 C 11,4 C 0,0 km/h (0 Bft) 100 %
06.05.2022 23:20 11,1 C 11,1 C 11,4 C 78 % 1021,8 hPa 0,0 l/m 0,0 km/h (0 Bft) N 0 0 min 0,000 mm 0 W/m 7,4 C 11,1 C 0,0 km/h (0 Bft) 100 %
06.05.2022 23:30 10,8 C 10,8 C 11,1 C 80 % 1021,9 hPa 0,0 l/m 1,6 km/h (1 Bft) O 90 0 min 0,000 mm 0 W/m 7,5 C 10,8 C 4,8 km/h (1 Bft) 89 %
06.05.2022 23:40 10,4 C 10,4 C 10,8 C 81 % 1022,0 hPa 0,0 l/m 0,0 km/h (0 Bft) O 90 0 min 0,000 mm 0 W/m 7,3 C 10,4 C 3,2 km/h (1 Bft) 100 %
06.05.2022 23:50 10,1 C 10,1 C 10,4 C 81 % 1021,9 hPa 0,0 l/m 0,0 km/h (0 Bft) N 0 0 min 0,000 mm 0 W/m 7,0 C 10,1 C 0,0 km/h (0 Bft) 100 %
_ Min-Zeit 06:10 06:10 06:20 17:20 00:50 - 00:00 - - - - - 23:50 06:10 00:00 23:30
Minimum _ 8,9 C 8,9 C 8,9 C 50 % 1020,8 hPa - 0,0 km/h (0 Bft) - - - - - 7,0 C 8,9 C 0,0 km/h (0 Bft) 89 %
_ Max-Zeit 16:30 16:30 16:30 00:00 11:10 00:00 14:20 - - 15:30 15:00 14:10 14:50 16:30 14:20 00:00
Maximum _ 19,7 C 19,4 C 19,7 C 90 % 1022,7 hPa 0,0 l/m 4,8 km/h
N-NW (1 Bft)
- - 20 min 0,381 mm 983 W/m 10,5 C 19,7 C 24,1 km/h
NW (4 Bft)
100 %
Durchschnitt _ 14,0 C 14,0 C 14,1 C 71 % 1021,7 hPa #0,0 l/m 0,4 km/h (0 Bft) N-NW - #11:00 h #2,996 mm 394 W/m 8,4 C 14,0 C 3,9 km/h (1 Bft) 99 %
PRIVATE WETTERSTATION BILLIGHEIM-ALLFELD - www.neckar-odenwald-wetter.de - Holger Sonntag